sensor_id;sensor_type;location;lat;lon;timestamp;temperature;humidity
31303;DHT22;51116;52.084;5.426;2022-07-09T06:53:01;25.70;84.00
31303;DHT22;51116;52.084;5.426;2022-07-09T06:55:28;25.80;84.10
31303;DHT22;51116;52.084;5.426;2022-07-09T06:57:55;25.80;84.10
31303;DHT22;51116;52.084;5.426;2022-07-09T07:00:23;25.80;83.90
31303;DHT22;51116;52.084;5.426;2022-07-09T07:02:50;25.80;84.50
31303;DHT22;51116;52.084;5.426;2022-07-09T13:07:15;27.80;67.50
31303;DHT22;51116;52.084;5.426;2022-07-09T13:09:42;27.80;66.70
31303;DHT22;51116;52.084;5.426;2022-07-09T13:12:09;27.80;67.20
31303;DHT22;51116;52.084;5.426;2022-07-09T13:14:36;27.80;66.90
31303;DHT22;51116;52.084;5.426;2022-07-09T13:17:03;27.90;67.40
31303;DHT22;51116;52.084;5.426;2022-07-09T13:19:30;27.90;67.10
31303;DHT22;51116;52.084;5.426;2022-07-09T13:21:56;27.90;67.10
31303;DHT22;51116;52.084;5.426;2022-07-09T13:24:25;27.90;66.50
31303;DHT22;51116;52.084;5.426;2022-07-09T13:26:51;27.80;66.30
31303;DHT22;51116;52.084;5.426;2022-07-09T13:29:18;27.70;66.70
31303;DHT22;51116;52.084;5.426;2022-07-09T13:31:45;27.60;67.10
31303;DHT22;51116;52.084;5.426;2022-07-09T13:34:12;27.50;67.80
31303;DHT22;51116;52.084;5.426;2022-07-09T13:36:39;27.50;68.60
31303;DHT22;51116;52.084;5.426;2022-07-09T13:39:06;27.40;69.30
31303;DHT22;51116;52.084;5.426;2022-07-09T13:41:34;27.20;69.80
31303;DHT22;51116;52.084;5.426;2022-07-09T13:44:02;27.20;70.40
31303;DHT22;51116;52.084;5.426;2022-07-09T13:46:28;27.20;70.80
31303;DHT22;51116;52.084;5.426;2022-07-09T13:48:55;27.10;70.90
31303;DHT22;51116;52.084;5.426;2022-07-09T13:51:22;27.10;71.10
31303;DHT22;51116;52.084;5.426;2022-07-09T13:53:49;27.10;71.00
31303;DHT22;51116;52.084;5.426;2022-07-09T13:56:16;27.00;71.00
31303;DHT22;51116;52.084;5.426;2022-07-09T13:58:44;27.00;71.30
31303;DHT22;51116;52.084;5.426;2022-07-09T14:01:11;27.00;71.30
31303;DHT22;51116;52.084;5.426;2022-07-09T14:03:38;27.00;71.30
31303;DHT22;51116;52.084;5.426;2022-07-09T14:06:05;27.00;71.10
31303;DHT22;51116;52.084;5.426;2022-07-09T14:08:32;27.00;71.10
31303;DHT22;51116;52.084;5.426;2022-07-09T14:10:59;26.90;71.00
31303;DHT22;51116;52.084;5.426;2022-07-09T14:13:26;26.90;70.90
31303;DHT22;51116;52.084;5.426;2022-07-09T14:15:57;26.90;70.80
31303;DHT22;51116;52.084;5.426;2022-07-09T14:18:25;26.90;70.70
31303;DHT22;51116;52.084;5.426;2022-07-09T14:20:52;26.90;70.70
31303;DHT22;51116;52.084;5.426;2022-07-09T14:23:19;26.80;70.30
31303;DHT22;51116;52.084;5.426;2022-07-09T14:25:46;26.80;70.30
31303;DHT22;51116;52.084;5.426;2022-07-09T14:28:13;26.70;70.10
31303;DHT22;51116;52.084;5.426;2022-07-09T14:30:40;26.70;70.30
31303;DHT22;51116;52.084;5.426;2022-07-09T14:33:08;26.70;70.10
31303;DHT22;51116;52.084;5.426;2022-07-09T14:35:35;26.60;69.70
31303;DHT22;51116;52.084;5.426;2022-07-09T14:38:02;26.60;69.70
31303;DHT22;51116;52.084;5.426;2022-07-09T14:40:29;26.60;69.60
31303;DHT22;51116;52.084;5.426;2022-07-09T14:42:56;26.60;69.70
31303;DHT22;51116;52.084;5.426;2022-07-09T14:45:22;26.50;69.20
31303;DHT22;51116;52.084;5.426;2022-07-09T14:47:51;26.50;69.30
31303;DHT22;51116;52.084;5.426;2022-07-09T14:50:20;26.50;69.90
31303;DHT22;51116;52.084;5.426;2022-07-09T14:52:47;26.50;69.10
31303;DHT22;51116;52.084;5.426;2022-07-09T14:55:14;26.50;68.90
31303;DHT22;51116;52.084;5.426;2022-07-09T14:57:41;26.40;68.60
31303;DHT22;51116;52.084;5.426;2022-07-09T15:00:09;26.40;68.50
31303;DHT22;51116;52.084;5.426;2022-07-09T15:02:36;26.40;68.20
31303;DHT22;51116;52.084;5.426;2022-07-09T15:05:03;26.30;68.30
31303;DHT22;51116;52.084;5.426;2022-07-09T15:07:32;26.30;68.10
31303;DHT22;51116;52.084;5.426;2022-07-09T15:10:00;26.30;67.90
31303;DHT22;51116;52.084;5.426;2022-07-09T15:12:27;26.30;67.70
31303;DHT22;51116;52.084;5.426;2022-07-09T15:14:54;26.20;67.70
31303;DHT22;51116;52.084;5.426;2022-07-09T15:17:20;26.10;67.20
31303;DHT22;51116;52.084;5.426;2022-07-09T15:19:48;26.10;67.20
31303;DHT22;51116;52.084;5.426;2022-07-09T15:22:15;26.00;67.20
31303;DHT22;51116;52.084;5.426;2022-07-09T15:24:43;26.00;67.30
31303;DHT22;51116;52.084;5.426;2022-07-09T15:27:10;26.00;67.60
31303;DHT22;51116;52.084;5.426;2022-07-09T15:29:37;26.00;67.60
31303;DHT22;51116;52.084;5.426;2022-07-09T15:32:04;26.00;67.60
31303;DHT22;51116;52.084;5.426;2022-07-09T15:34:31;26.00;67.70
31303;DHT22;51116;52.084;5.426;2022-07-09T15:36:58;25.90;67.80
31303;DHT22;51116;52.084;5.426;2022-07-09T15:39:26;25.90;68.10
31303;DHT22;51116;52.084;5.426;2022-07-09T15:41:54;25.80;68.00
31303;DHT22;51116;52.084;5.426;2022-07-09T15:44:21;25.80;68.30
31303;DHT22;51116;52.084;5.426;2022-07-09T15:46:48;25.80;68.40
31303;DHT22;51116;52.084;5.426;2022-07-09T15:49:15;25.80;68.40
31303;DHT22;51116;52.084;5.426;2022-07-09T15:51:42;25.70;68.20
31303;DHT22;51116;52.084;5.426;2022-07-09T15:54:13;25.70;68.30
31303;DHT22;51116;52.084;5.426;2022-07-09T15:56:40;25.70;68.70
31303;DHT22;51116;52.084;5.426;2022-07-09T15:59:08;25.60;68.40
31303;DHT22;51116;52.084;5.426;2022-07-09T16:01:35;25.60;68.80
31303;DHT22;51116;52.084;5.426;2022-07-09T16:04:02;25.60;69.30
31303;DHT22;51116;52.084;5.426;2022-07-09T16:06:30;25.60;69.20
31303;DHT22;51116;52.084;5.426;2022-07-09T16:08:57;25.70;69.40
31303;DHT22;51116;52.084;5.426;2022-07-09T16:11:24;25.60;69.50
31303;DHT22;51116;52.084;5.426;2022-07-09T16:14:10;25.60;69.70
31303;DHT22;51116;52.084;5.426;2022-07-09T16:16:37;25.60;69.90
31303;DHT22;51116;52.084;5.426;2022-07-09T16:19:04;25.60;70.00
31303;DHT22;51116;52.084;5.426;2022-07-09T16:21:31;25.50;69.50
31303;DHT22;51116;52.084;5.426;2022-07-09T16:23:58;25.40;69.30
31303;DHT22;51116;52.084;5.426;2022-07-09T16:26:25;25.50;70.00
31303;DHT22;51116;52.084;5.426;2022-07-09T16:28:52;25.40;69.60
31303;DHT22;51116;52.084;5.426;2022-07-09T16:31:20;25.30;69.40
31303;DHT22;51116;52.084;5.426;2022-07-09T16:33:47;25.30;69.50
31303;DHT22;51116;52.084;5.426;2022-07-09T16:36:14;25.20;69.20
31303;DHT22;51116;52.084;5.426;2022-07-09T16:38:41;25.20;69.20
31303;DHT22;51116;52.084;5.426;2022-07-09T16:41:08;25.10;68.60
31303;DHT22;51116;52.084;5.426;2022-07-09T16:43:35;25.10;68.20
31303;DHT22;51116;52.084;5.426;2022-07-09T16:46:02;25.00;68.00
31303;DHT22;51116;52.084;5.426;2022-07-09T16:48:37;24.90;67.80
31303;DHT22;51116;52.084;5.426;2022-07-09T16:51:04;24.90;68.20
31303;DHT22;51116;52.084;5.426;2022-07-09T16:53:31;24.90;68.10
31303;DHT22;51116;52.084;5.426;2022-07-09T16:55:58;24.80;68.00
31303;DHT22;51116;52.084;5.426;2022-07-09T16:58:25;24.90;68.30
31303;DHT22;51116;52.084;5.426;2022-07-09T17:00:52;25.30;67.90
31303;DHT22;51116;52.084;5.426;2022-07-09T17:03:19;25.70;67.70
31303;DHT22;51116;52.084;5.426;2022-07-09T17:05:47;26.50;66.80
